Time;durP1;ratioP1;P1;durP2;ratioP2;P2;SDS_P1;SDS_P2;PMS_P1;PMS_P2;Temp;Humidity;BMP_temperature;BMP_pressure;BME280_temperature;BME280_humidity;BME280_pressure;Samples;Min_cycle;Max_cycle;Signal;HPM_P1;HPM_P2
2021/03/21 00:00:40;;;;;;;30.97;15.60;;;0.70;67.40;;;;;;5084803;28;20213;-85
2021/03/21 00:03:07;;;;;;;20.77;10.70;;;0.50;73.00;;;;;;5086688;28;20242;-85
2021/03/21 00:05:34;;;;;;;22.87;10.97;;;0.70;73.60;;;;;;5087431;28;20221;-86
2021/03/21 00:08:03;;;;;;;21.23;11.30;;;0.80;70.60;;;;;;5089585;28;20223;-85
2021/03/21 00:10:31;;;;;;;7.03;5.00;;;0.70;70.30;;;;;;5085198;28;20197;-85
2021/03/21 00:12:58;;;;;;;35.10;18.00;;;0.70;70.40;;;;;;5086829;28;20207;-84
2021/03/21 00:15:26;;;;;;;22.53;12.10;;;0.70;73.00;;;;;;5091245;28;20565;-85
2021/03/21 00:17:54;;;;;;;9.73;6.47;;;0.70;71.80;;;;;;5088484;28;20209;-86
2021/03/21 00:20:24;;;;;;;7.60;6.03;;;0.70;69.60;;;;;;5086577;28;20190;-85
2021/03/21 00:22:51;;;;;;;29.63;14.87;;;0.50;70.30;;;;;;5085423;28;20225;-85
2021/03/21 00:25:19;;;;;;;12.53;6.87;;;0.70;72.80;;;;;;5089915;28;20201;-85
2021/03/21 00:27:46;;;;;;;16.07;9.00;;;0.70;70.40;;;;;;5087975;28;20775;-84
2021/03/21 00:30:16;;;;;;;35.60;14.90;;;0.60;71.00;;;;;;5088794;28;20659;-86
2021/03/21 00:32:44;;;;;;;8.83;5.87;;;0.50;75.00;;;;;;5088937;28;20201;-85
2021/03/21 00:35:11;;;;;;;118.07;48.10;;;0.60;72.40;;;;;;5085485;28;20224;-85
2021/03/21 00:37:40;;;;;;;17.13;9.40;;;0.80;76.60;;;;;;5093053;28;20198;-85
2021/03/21 00:40:09;;;;;;;51.47;21.50;;;0.60;71.30;;;;;;5088098;28;20682;-86
2021/03/21 00:42:35;;;;;;;62.90;27.23;;;0.50;75.10;;;;;;5087447;28;20271;-85
2021/03/21 00:45:03;;;;;;;43.33;20.33;;;0.70;74.60;;;;;;5080369;28;20216;-85
2021/03/21 00:47:29;;;;;;;8.20;5.50;;;0.70;72.80;;;;;;5085250;28;20200;-85
2021/03/21 00:49:57;;;;;;;9.43;5.97;;;0.60;69.90;;;;;;5081600;28;20229;-85
2021/03/21 00:52:23;;;;;;;37.23;15.73;;;0.70;69.20;;;;;;5085460;28;20229;-86
2021/03/21 00:54:50;;;;;;;15.20;8.60;;;0.60;74.10;;;;;;5085626;28;20800;-85
2021/03/21 00:57:16;;;;;;;28.90;12.70;;;0.80;69.50;;;;;;5092479;28;20201;-85
2021/03/21 00:59:43;;;;;;;69.30;24.30;;;0.50;71.30;;;;;;5090528;28;20233;-85
2021/03/21 01:02:10;;;;;;;8.03;5.73;;;0.70;73.50;;;;;;5086795;28;20196;-85
2021/03/21 01:04:36;;;;;;;25.70;11.57;;;0.70;70.10;;;;;;5087533;28;20228;-85
2021/03/21 01:07:05;;;;;;;13.80;7.23;;;0.60;70.70;;;;;;5090723;28;20201;-86
2021/03/21 01:09:31;;;;;;;7.37;5.27;;;0.60;67.20;;;;;;5088654;28;20224;-85
2021/03/21 01:11:57;;;;;;;11.00;5.70;;;0.40;68.90;;;;;;5087366;28;20200;-84
2021/03/21 01:14:24;;;;;;;17.00;7.93;;;0.10;71.50;;;;;;5090008;28;20232;-85
2021/03/21 01:16:52;;;;;;;12.00;6.60;;;0.10;71.80;;;;;;5085507;28;20196;-85
2021/03/21 01:19:21;;;;;;;25.93;9.83;;;0.10;73.20;;;;;;5088478;28;20699;-85
2021/03/21 01:21:48;;;;;;;20.27;9.47;;;0.40;71.60;;;;;;5089217;28;20244;-85
2021/03/21 01:24:18;;;;;;;16.47;7.23;;;0.50;70.70;;;;;;5080746;28;20279;-87
2021/03/21 01:26:44;;;;;;;16.70;8.13;;;0.50;70.40;;;;;;5090506;28;20287;-85
2021/03/21 01:29:11;;;;;;;8.57;5.00;;;0.50;71.30;;;;;;5094117;28;20258;-85
2021/03/21 01:31:38;;;;;;;6.53;4.90;;;0.40;69.00;;;;;;5094658;28;20200;-85
2021/03/21 01:34:05;;;;;;;7.53;5.43;;;0.20;69.40;;;;;;5088580;28;20220;-85
2021/03/21 01:36:34;;;;;;;30.33;11.40;;;0.10;71.40;;;;;;5096030;28;20206;-85
2021/03/21 01:39:04;;;;;;;15.43;7.53;;;0.30;74.10;;;;;;5082843;28;20224;-86
2021/03/21 01:41:33;;;;;;;20.87;8.57;;;0.50;71.90;;;;;;5088205;28;20200;-85
2021/03/21 01:44:00;;;;;;;15.03;7.37;;;0.70;70.30;;;;;;5088605;28;20225;-85
2021/03/21 01:46:45;;;;;;;15.97;7.77;;;0.90;68.70;;;;;;5095747;28;20546;-86
2021/03/21 01:49:16;;;;;;;7.27;5.30;;;1.10;65.70;;;;;;5093022;28;20228;-85
2021/03/21 01:51:43;;;;;;;5.53;4.90;;;0.90;65.40;;;;;;5089068;28;20197;-84
2021/03/21 01:54:14;;;;;;;6.23;4.87;;;0.70;65.20;;;;;;5089938;28;20227;-85
2021/03/21 01:56:42;;;;;;;6.33;5.00;;;0.40;66.00;;;;;;5089386;28;20288;-84
2021/03/21 01:59:10;;;;;;;10.03;6.03;;;0.50;66.90;;;;;;5089182;28;20230;-87
2021/03/21 02:01:37;;;;;;;16.83;7.47;;;0.40;68.30;;;;;;5085532;28;20197;-84
2021/03/21 02:04:04;;;;;;;6.40;4.60;;;0.80;70.00;;;;;;5087500;28;20248;-85
2021/03/21 02:06:46;;;;;;;15.33;6.50;;;0.80;65.30;;;;;;5094143;28;20206;-84
2021/03/21 02:09:20;;;;;;;6.17;4.57;;;1.00;65.50;;;;;;5090403;28;20238;-86
2021/03/21 02:12:01;;;;;;;8.27;4.73;;;0.90;63.10;;;;;;5089228;28;20641;-85
2021/03/21 02:14:34;;;;;;;8.13;5.07;;;0.70;63.00;;;;;;5096008;28;20623;-86
2021/03/21 02:17:06;;;;;;;5.60;4.40;;;0.60;65.20;;;;;;5079794;28;20204;-85
2021/03/21 02:20:00;;;;;;;6.33;4.80;;;0.60;63.40;;;;;;5090138;28;20714;-84
2021/03/21 02:22:31;;;;;;;6.43;4.10;;;0.60;64.50;;;;;;5062601;28;20216;-84
2021/03/21 02:25:27;;;;;;;7.20;4.93;;;0.60;65.10;;;;;;5083523;28;20252;-84
2021/03/21 02:28:09;;;;;;;6.90;4.60;;;0.70;65.20;;;;;;5049911;28;20554;-84
2021/03/21 02:30:41;;;;;;;8.57;5.07;;;0.80;65.40;;;;;;5087570;28;20600;-85
2021/03/21 02:33:14;;;;;;;5.43;4.10;;;0.90;65.40;;;;;;5090370;28;20206;-84
2021/03/21 02:35:47;;;;;;;7.20;5.00;;;1.00;63.50;;;;;;5089281;28;20211;-85
2021/03/21 02:38:21;;;;;;;6.27;4.53;;;1.10;63.80;;;;;;5083667;28;20236;-88
2021/03/21 02:40:53;;;;;;;8.60;5.07;;;1.20;63.20;;;;;;5087758;28;20229;-86
2021/03/21 02:43:25;;;;;;;6.90;4.83;;;1.10;62.40;;;;;;5086005;28;20224;-87
2021/03/21 02:45:55;;;;;;;7.20;4.63;;;1.00;62.60;;;;;;5088805;28;20246;-86
2021/03/21 02:48:26;;;;;;;6.80;4.83;;;0.90;64.30;;;;;;5084695;28;20316;-88
2021/03/21 02:50:56;;;;;;;7.90;4.60;;;1.00;63.20;;;;;;5088009;28;20193;-85
2021/03/21 02:53:27;;;;;;;6.83;4.90;;;0.80;65.30;;;;;;5072722;28;20724;-87
2021/03/21 02:55:58;;;;;;;7.43;5.07;;;0.70;65.20;;;;;;5090120;28;20200;-86
2021/03/21 02:58:30;;;;;;;5.70;4.50;;;0.80;66.70;;;;;;5090366;28;20234;-84
2021/03/21 03:01:00;;;;;;;7.30;4.53;;;0.90;65.50;;;;;;5091320;28;20207;-86
2021/03/21 03:03:28;;;;;;;6.43;4.40;;;0.90;65.40;;;;;;5088594;28;20230;-85
2021/03/21 03:05:58;;;;;;;7.03;4.33;;;0.80;65.30;;;;;;5084143;28;20220;-85
2021/03/21 03:08:30;;;;;;;6.30;4.63;;;0.70;65.20;;;;;;5082505;28;20622;-85
2021/03/21 03:11:01;;;;;;;6.83;4.53;;;0.80;65.30;;;;;;5089718;28;20204;-84
2021/03/21 03:13:32;;;;;;;7.77;5.10;;;0.80;65.30;;;;;;5084677;28;20221;-84
2021/03/21 03:16:03;;;;;;;6.73;4.60;;;0.90;65.30;;;;;;5085500;28;20200;-84
2021/03/21 03:18:39;;;;;;;6.53;4.73;;;0.80;65.30;;;;;;5086594;28;20220;-85
2021/03/21 03:21:10;;;;;;;4.97;4.03;;;0.70;65.20;;;;;;5084387;28;20209;-85
2021/03/21 03:23:46;;;;;;;5.60;3.97;;;0.80;65.30;;;;;;5089858;28;20757;-85
2021/03/21 03:26:21;;;;;;;8.23;4.70;;;0.80;65.30;;;;;;5091077;28;20200;-83
2021/03/21 03:28:53;;;;;;;5.77;4.73;;;0.70;65.20;;;;;;5082301;28;20234;-85
2021/03/21 03:31:26;;;;;;;5.80;4.33;;;0.50;65.00;;;;;;5087848;28;20201;-87
2021/03/21 03:33:54;;;;;;;6.23;4.23;;;0.40;68.60;;;;;;5090107;28;20227;-85
2021/03/21 03:36:20;;;;;;;6.97;4.80;;;0.50;65.00;;;;;;5089010;28;20201;-84
2021/03/21 03:38:49;;;;;;;5.80;4.67;;;0.50;65.00;;;;;;5084188;28;20617;-84
2021/03/21 03:41:26;;;;;;;6.00;4.17;;;0.60;65.10;;;;;;5090240;28;20236;-85
2021/03/21 03:44:01;;;;;;;5.80;4.43;;;0.60;66.60;;;;;;5089418;28;20228;-84
2021/03/21 03:46:35;;;;;;;6.37;4.13;;;0.70;65.20;;;;;;5080597;28;20257;-85
2021/03/21 03:49:13;;;;;;;6.00;4.63;;;0.80;65.30;;;;;;5083814;28;20235;-85
2021/03/21 03:51:51;;;;;;;6.63;4.33;;;0.70;65.80;;;;;;5089159;28;20294;-84
2021/03/21 03:54:25;;;;;;;5.03;4.07;;;0.60;65.10;;;;;;5090708;28;20307;-86
2021/03/21 03:56:57;;;;;;;4.77;3.93;;;0.60;65.10;;;;;;5088077;28;20231;-85
2021/03/21 03:59:44;;;;;;;5.50;4.13;;;0.60;65.20;;;;;;5090832;28;20259;-85
2021/03/21 04:02:13;;;;;;;5.90;4.30;;;0.60;65.10;;;;;;5085499;28;20241;-86
2021/03/21 04:04:50;;;;;;;7.63;4.40;;;0.80;65.30;;;;;;5086522;28;20235;-84
2021/03/21 04:07:22;;;;;;;5.90;4.40;;;0.80;64.40;;;;;;5089208;28;20201;-86
2021/03/21 04:09:53;;;;;;;4.97;4.27;;;0.70;65.20;;;;;;5084751;28;20230;-86
2021/03/21 04:12:27;;;;;;;4.50;4.10;;;0.60;65.20;;;;;;5085062;28;20208;-84
2021/03/21 04:14:59;;;;;;;6.10;4.43;;;0.60;65.10;;;;;;5081662;28;20269;-84
2021/03/21 04:17:32;;;;;;;6.13;4.33;;;0.60;66.60;;;;;;5093575;28;20215;-84
2021/03/21 04:20:05;;;;;;;5.60;4.10;;;0.50;65.00;;;;;;5085691;28;20226;-85
2021/03/21 04:22:37;;;;;;;6.77;4.20;;;0.40;64.90;;;;;;5087779;28;20219;-84
2021/03/21 04:25:08;;;;;;;4.37;3.70;;;0.30;64.70;;;;;;5084691;28;20223;-86
2021/03/21 04:27:39;;;;;;;5.17;4.03;;;0.50;65.00;;;;;;5090226;28;20215;-85
2021/03/21 04:30:09;;;;;;;7.23;4.20;;;0.70;65.20;;;;;;5084634;28;20232;-87
2021/03/21 04:32:42;;;;;;;4.20;3.60;;;0.60;63.20;;;;;;5089088;28;20294;-85
2021/03/21 04:35:13;;;;;;;5.00;3.90;;;0.60;64.90;;;;;;5092860;28;20220;-84
2021/03/21 04:37:42;;;;;;;6.97;4.23;;;0.60;64.40;;;;;;5092914;28;20211;-84
2021/03/21 04:40:11;;;;;;;8.27;4.37;;;0.80;62.80;;;;;;5090388;28;20271;-84
2021/03/21 04:42:43;;;;;;;4.63;4.10;;;0.60;63.60;;;;;;5095827;28;20208;-83
2021/03/21 04:45:14;;;;;;;6.00;4.10;;;0.70;61.80;;;;;;5091377;28;20231;-84
2021/03/21 04:47:47;;;;;;;5.57;4.00;;;0.70;63.50;;;;;;5091083;28;20232;-85
2021/03/21 04:50:16;;;;;;;6.70;4.17;;;0.60;65.20;;;;;;5084853;28;20269;-84
2021/03/21 04:52:47;;;;;;;4.90;4.20;;;0.80;62.10;;;;;;5097680;28;20192;-85
2021/03/21 04:55:16;;;;;;;4.57;3.97;;;0.90;61.20;;;;;;5096275;28;20216;-84
2021/03/21 04:57:45;;;;;;;5.80;4.27;;;0.90;62.90;;;;;;5086691;28;20566;-84
2021/03/21 05:00:18;;;;;;;6.93;4.10;;;1.00;58.90;;;;;;5093656;28;20231;-86
2021/03/21 05:02:49;;;;;;;5.47;3.93;;;0.90;59.90;;;;;;5093291;28;20283;-85
2021/03/21 05:05:21;;;;;;;5.23;4.03;;;1.00;60.60;;;;;;5094204;28;20237;-86
2021/03/21 05:07:54;;;;;;;4.60;3.87;;;0.90;59.30;;;;;;5097640;28;20239;-85
2021/03/21 05:10:26;;;;;;;4.70;4.00;;;0.80;59.20;;;;;;5091639;28;20258;-85
2021/03/21 05:12:58;;;;;;;5.77;4.20;;;0.60;60.70;;;;;;5094239;28;20557;-84
2021/03/21 05:15:29;;;;;;;4.67;4.17;;;0.70;60.90;;;;;;5095053;28;20212;-85
2021/03/21 05:18:05;;;;;;;6.30;4.00;;;0.70;60.40;;;;;;5094664;28;20265;-84
2021/03/21 05:20:37;;;;;;;4.83;4.33;;;0.70;61.00;;;;;;5093130;28;20289;-88
2021/03/21 05:23:15;;;;;;;4.63;3.90;;;0.70;61.50;;;;;;5089857;28;20224;-84
2021/03/21 05:25:47;;;;;;;5.53;3.80;;;0.90;60.20;;;;;;5089188;28;20202;-85
2021/03/21 05:28:21;;;;;;;4.43;3.73;;;1.10;58.10;;;;;;5091993;28;20244;-85
2021/03/21 05:30:48;;;;;;;4.77;3.67;;;1.10;57.20;;;;;;5089923;28;20202;-86
2021/03/21 05:33:15;;;;;;;5.20;4.00;;;1.00;58.30;;;;;;5091625;28;20228;-85
2021/03/21 05:35:42;;;;;;;4.90;3.80;;;0.80;59.40;;;;;;5091090;28;20723;-86
2021/03/21 05:38:22;;;;;;;5.73;3.93;;;0.70;58.80;;;;;;5091953;28;20264;-87
2021/03/21 05:41:38;;;;;;;4.07;3.33;;;0.90;59.30;;;;;;5085300;28;20200;-84
2021/03/21 05:44:37;;;;;;;4.30;3.47;;;0.90;61.50;;;;;;5088930;28;20645;-84
2021/03/21 05:47:33;;;;;;;4.63;3.60;;;0.90;60.10;;;;;;5092211;28;20321;-84
2021/03/21 05:50:40;;;;;;;5.17;3.50;;;0.90;60.00;;;;;;5088503;28;20635;-84
2021/03/21 05:53:39;;;;;;;4.93;3.90;;;0.90;60.00;;;;;;5085930;28;20193;-85
2021/03/21 05:56:22;;;;;;;5.70;3.60;;;1.00;59.30;;;;;;5083630;28;20293;-85
2021/03/21 05:59:12;;;;;;;4.13;3.57;;;0.90;60.90;;;;;;5090639;28;20296;-86
2021/03/21 06:02:06;;;;;;;4.70;3.50;;;0.90;61.40;;;;;;5091024;28;20652;-86
2021/03/21 06:05:00;;;;;;;5.70;3.87;;;0.90;61.80;;;;;;5084550;28;20224;-85
2021/03/21 06:08:20;;;;;;;5.17;3.60;;;1.10;60.40;;;;;;5088304;28;20208;-84
2021/03/21 06:11:26;;;;;;;6.83;3.30;;;1.10;60.70;;;;;;5031416;28;20211;-84
2021/03/21 06:14:21;;;;;;;4.33;3.30;;;1.10;60.20;;;;;;5039714;28;20223;-86
2021/03/21 06:17:17;;;;;;;5.70;3.30;;;1.30;59.00;;;;;;5090826;28;20280;-85
2021/03/21 06:20:20;;;;;;;4.50;3.30;;;1.20;59.50;;;;;;5065138;28;20709;-85
2021/03/21 06:23:10;;;;;;;4.10;3.23;;;1.30;59.20;;;;;;5091822;28;20208;-85
2021/03/21 06:25:51;;;;;;;4.00;2.97;;;1.40;58.80;;;;;;5092073;28;20233;-86
2021/03/21 06:29:03;;;;;;;4.17;3.13;;;1.50;57.70;;;;;;5091370;28;20839;-85
2021/03/21 06:32:00;;;;;;;4.27;3.10;;;1.60;57.90;;;;;;5092764;28;20229;-85
2021/03/21 06:34:33;;;;;;;4.17;3.20;;;1.60;58.80;;;;;;5081228;28;20245;-84
2021/03/21 06:37:01;;;;;;;4.13;3.40;;;1.50;58.00;;;;;;5086184;28;20218;-87
2021/03/21 06:39:58;;;;;;;6.67;3.57;;;1.40;58.60;;;;;;5089306;28;20233;-88
2021/03/21 06:42:54;;;;;;;4.33;3.27;;;1.40;58.80;;;;;;5089054;28;20576;-87
2021/03/21 06:45:59;;;;;;;7.47;3.40;;;1.40;57.80;;;;;;5091140;28;20676;-88
2021/03/21 06:48:52;;;;;;;5.03;3.17;;;1.50;58.00;;;;;;5086924;28;20240;-88
2021/03/21 06:51:50;;;;;;;7.03;3.57;;;1.70;58.00;;;;;;5086910;28;20225;-84
2021/03/21 06:54:30;;;;;;;4.73;3.33;;;1.80;56.10;;;;;;5084490;28;20227;-85
2021/03/21 06:57:29;;;;;;;3.77;3.10;;;1.80;57.10;;;;;;5085607;28;20295;-85
2021/03/21 07:00:31;;;;;;;5.47;3.20;;;1.90;54.80;;;;;;5061310;28;20230;-85
2021/03/21 07:03:48;;;;;;;6.27;2.93;;;2.10;54.70;;;;;;5087432;28;20203;-85
2021/03/21 07:06:56;;;;;;;5.40;3.00;;;2.20;52.70;;;;;;5088169;28;20210;-83
2021/03/21 07:09:59;;;;;;;4.13;3.10;;;2.00;53.00;;;;;;5083549;28;20261;-86
2021/03/21 07:13:03;;;;;;;3.53;2.73;;;1.80;54.10;;;;;;5088526;28;20602;-85
2021/03/21 07:15:48;;;;;;;3.87;3.17;;;1.90;54.90;;;;;;5085864;28;20237;-85
2021/03/21 07:18:45;;;;;;;6.33;3.30;;;2.10;52.50;;;;;;5087786;28;20760;-85
2021/03/21 07:21:55;;;;;;;5.63;3.20;;;2.20;52.80;;;;;;5081229;28;20199;-84
2021/03/21 07:25:07;;;;;;;5.83;2.90;;;2.30;52.60;;;;;;5082964;28;20705;-87
2021/03/21 07:28:15;;;;;;;4.37;3.00;;;2.30;53.90;;;;;;5073690;28;20203;-84
2021/03/21 07:30:53;;;;;;;4.10;2.93;;;2.30;53.10;;;;;;5005854;28;20237;-84
2021/03/21 07:33:32;;;;;;;3.63;2.87;;;2.30;52.60;;;;;;5005409;28;20333;-84
2021/03/21 07:36:24;;;;;;;5.07;3.00;;;2.50;49.80;;;;;;5061880;28;20208;-86
2021/03/21 07:39:20;;;;;;;4.90;2.97;;;2.60;51.40;;;;;;5080880;28;20232;-85
2021/03/21 07:42:10;;;;;;;4.77;2.90;;;2.70;49.90;;;;;;5092064;28;20201;-85
2021/03/21 07:44:51;;;;;;;3.30;2.77;;;2.70;49.40;;;;;;5086171;28;20235;-86
2021/03/21 07:47:42;;;;;;;4.43;2.73;;;2.70;49.20;;;;;;5088028;28;20225;-85
2021/03/21 07:50:28;;;;;;;4.67;2.90;;;2.80;50.40;;;;;;5079687;28;20286;-85
2021/03/21 07:53:04;;;;;;;6.70;3.13;;;3.20;47.50;;;;;;5087571;28;20253;-85
2021/03/21 07:55:40;;;;;;;4.97;2.93;;;3.30;48.10;;;;;;5088122;28;20204;-86
2021/03/21 07:58:13;;;;;;;4.57;2.83;;;3.20;47.60;;;;;;5089838;28;20200;-82
2021/03/21 08:00:40;;;;;;;3.83;3.03;;;3.00;46.90;;;;;;5095275;28;20250;-83
2021/03/21 08:03:32;;;;;;;3.47;2.80;;;2.90;47.20;;;;;;5087248;28;20197;-84
2021/03/21 08:06:01;;;;;;;3.47;2.77;;;2.90;48.60;;;;;;5102794;28;20197;-82
2021/03/21 08:08:31;;;;;;;4.27;2.80;;;2.80;47.50;;;;;;5105296;28;20226;-81
2021/03/21 08:11:01;;;;;;;3.03;2.73;;;2.90;49.10;;;;;;5098337;28;20200;-82
2021/03/21 08:13:39;;;;;;;3.70;3.20;;;3.00;47.60;;;;;;5098663;28;20227;-81
2021/03/21 08:16:09;;;;;;;4.93;2.90;;;3.00;47.40;;;;;;5096481;28;20638;-83
2021/03/21 08:18:37;;;;;;;3.80;2.73;;;3.10;47.80;;;;;;5097197;28;20228;-82
2021/03/21 08:21:07;;;;;;;4.57;2.90;;;3.30;47.90;;;;;;5092100;28;20200;-83
2021/03/21 08:23:37;;;;;;;5.33;3.30;;;3.20;46.10;;;;;;5093009;28;20220;-84
2021/03/21 08:26:06;;;;;;;3.33;2.57;;;3.20;47.20;;;;;;5103256;28;20229;-84
2021/03/21 08:28:43;;;;;;;4.50;2.80;;;3.20;47.30;;;;;;5096094;28;20232;-88
2021/03/21 08:31:27;;;;;;;3.60;2.80;;;3.00;47.60;;;;;;5098923;28;20196;-80
2021/03/21 08:33:53;;;;;;;3.80;2.83;;;2.80;49.20;;;;;;5091282;28;20228;-85
2021/03/21 08:36:23;;;;;;;4.67;2.70;;;2.80;49.30;;;;;;5095328;28;20218;-90
2021/03/21 08:38:59;;;;;;;5.63;3.30;;;2.80;48.60;;;;;;5091987;28;20281;-84
2021/03/21 08:41:27;;;;;;;4.77;2.70;;;2.80;49.00;;;;;;5091975;28;20605;-84
2021/03/21 08:44:06;;;;;;;3.37;2.80;;;2.80;50.40;;;;;;5086416;28;20221;-83
2021/03/21 08:46:33;;;;;;;2.90;2.60;;;2.80;48.70;;;;;;5097422;28;20210;-81
2021/03/21 08:49:05;;;;;;;3.40;2.87;;;2.90;48.00;;;;;;5093842;28;20223;-80
2021/03/21 08:51:38;;;;;;;5.97;3.10;;;3.10;48.20;;;;;;5083622;28;20654;-83
2021/03/21 08:54:13;;;;;;;3.87;2.73;;;3.20;47.20;;;;;;5088557;28;20217;-83
2021/03/21 08:56:41;;;;;;;3.30;2.60;;;3.00;47.90;;;;;;5092178;28;20260;-85
2021/03/21 08:59:25;;;;;;;4.43;2.90;;;2.90;47.10;;;;;;5094023;28;20704;-83
2021/03/21 09:02:14;;;;;;;4.13;2.80;;;2.70;47.90;;;;;;5092793;28;20200;-83
2021/03/21 09:04:43;;;;;;;4.07;3.00;;;2.70;48.00;;;;;;5091719;28;20699;-86
2021/03/21 09:07:16;;;;;;;3.40;2.80;;;2.90;48.20;;;;;;5089322;28;20237;-85
2021/03/21 09:09:43;;;;;;;4.53;2.93;;;3.10;48.20;;;;;;5091687;28;20228;-85
2021/03/21 09:12:28;;;;;;;5.27;3.00;;;3.10;48.70;;;;;;5093734;28;20655;-86
2021/03/21 09:15:37;;;;;;;3.90;2.83;;;3.20;48.10;;;;;;5084089;28;20667;-86
2021/03/21 09:18:26;;;;;;;6.33;2.90;;;3.10;49.50;;;;;;5091862;28;20196;-87
2021/03/21 09:21:15;;;;;;;4.70;2.67;;;3.00;48.00;;;;;;5089742;28;20204;-84
2021/03/21 09:23:44;;;;;;;3.70;2.77;;;3.00;46.70;;;;;;5090891;28;20252;-88
2021/03/21 09:26:27;;;;;;;4.60;3.30;;;2.80;47.80;;;;;;5084919;28;20236;-85
2021/03/21 09:28:56;;;;;;;4.20;3.20;;;2.80;48.80;;;;;;5086707;28;20665;-83
2021/03/21 09:31:24;;;;;;;4.00;3.27;;;2.90;50.10;;;;;;5090107;28;20200;-82
2021/03/21 09:33:58;;;;;;;4.23;3.37;;;3.20;47.10;;;;;;5089292;28;20584;-83
2021/03/21 09:36:28;;;;;;;5.67;3.20;;;3.30;47.50;;;;;;5088502;28;20582;-84
2021/03/21 09:38:57;;;;;;;4.40;3.10;;;3.30;46.70;;;;;;5086521;28;20280;-84
2021/03/21 09:41:29;;;;;;;3.80;3.37;;;3.30;46.90;;;;;;5086984;28;20202;-84
2021/03/21 09:44:04;;;;;;;6.40;3.10;;;3.60;46.10;;;;;;5086929;28;20274;-83
2021/03/21 09:46:47;;;;;;;5.03;3.43;;;3.70;45.30;;;;;;5090453;28;20202;-85
2021/03/21 09:49:18;;;;;;;3.33;3.00;;;3.70;43.90;;;;;;5086134;28;20233;-82
2021/03/21 09:51:51;;;;;;;4.03;3.10;;;3.60;46.10;;;;;;5090359;28;20228;-82
2021/03/21 09:54:32;;;;;;;4.20;3.00;;;3.70;44.20;;;;;;5094897;28;20323;-82
2021/03/21 09:57:28;;;;;;;7.57;3.20;;;3.80;43.60;;;;;;5091883;28;20228;-84
2021/03/21 09:59:59;;;;;;;4.23;3.20;;;3.70;43.80;;;;;;5092530;28;20231;-83
2021/03/21 10:02:34;;;;;;;5.53;2.83;;;3.70;44.70;;;;;;5095818;28;20232;-83
2021/03/21 10:05:05;;;;;;;4.10;2.90;;;3.70;44.80;;;;;;5098929;28;20302;-82
2021/03/21 10:07:40;;;;;;;5.63;3.20;;;3.60;45.30;;;;;;5100835;28;20260;-82
2021/03/21 10:10:14;;;;;;;4.37;3.20;;;3.60;46.20;;;;;;5102979;28;20571;-82
2021/03/21 10:12:41;;;;;;;3.87;3.40;;;3.50;46.30;;;;;;5095698;28;20211;-82
2021/03/21 10:15:11;;;;;;;4.33;2.93;;;3.60;47.20;;;;;;5089918;28;20228;-83
2021/03/21 10:17:43;;;;;;;4.43;3.10;;;3.60;46.00;;;;;;5095750;28;20603;-85
2021/03/21 10:20:13;;;;;;;5.03;3.20;;;3.50;46.20;;;;;;5096427;28;20244;-84
2021/03/21 10:23:07;;;;;;;6.00;3.23;;;3.50;47.30;;;;;;5095201;28;20215;-85
2021/03/21 10:26:06;;;;;;;4.00;3.17;;;3.30;47.50;;;;;;5048641;28;20727;-86
2021/03/21 10:28:42;;;;;;;5.20;3.57;;;3.30;49.70;;;;;;5094092;28;20247;-82
2021/03/21 10:31:42;;;;;;;5.73;3.37;;;3.30;50.00;;;;;;5093071;28;20240;-82
2021/03/21 10:34:37;;;;;;;5.30;2.93;;;3.40;50.10;;;;;;5089497;28;20221;-82
2021/03/21 10:37:04;;;;;;;4.97;3.40;;;3.50;49.00;;;;;;5087677;28;20188;-81
2021/03/21 10:39:54;;;;;;;4.80;3.30;;;3.50;49.20;;;;;;5087756;28;20311;-84
2021/03/21 10:42:37;;;;;;;6.30;3.50;;;3.40;49.70;;;;;;5090766;28;20203;-82
2021/03/21 10:45:06;;;;;;;7.83;3.23;;;3.40;50.30;;;;;;5080265;28;20586;-85
2021/03/21 10:47:53;;;;;;;4.20;3.30;;;3.50;49.60;;;;;;5081665;28;20590;-83
2021/03/21 10:50:52;;;;;;;4.93;3.27;;;3.60;48.70;;;;;;5080940;28;20221;-84
2021/03/21 10:53:26;;;;;;;4.33;3.60;;;3.70;48.60;;;;;;5076019;28;20296;-85
2021/03/21 10:56:05;;;;;;;5.73;3.20;;;3.80;48.30;;;;;;5089716;28;20211;-82
2021/03/21 10:58:53;;;;;;;6.97;3.23;;;3.70;47.90;;;;;;5087192;28;20240;-83
2021/03/21 11:01:31;;;;;;;5.40;3.27;;;3.70;49.20;;;;;;5090064;28;20287;-83
2021/03/21 11:04:26;;;;;;;4.67;3.50;;;3.70;47.40;;;;;;5078307;28;20224;-82
2021/03/21 11:07:11;;;;;;;8.03;4.63;;;3.80;47.70;;;;;;5087830;28;20280;-84
2021/03/21 11:09:51;;;;;;;4.67;3.50;;;4.00;49.10;;;;;;5088958;28;20705;-83
2021/03/21 11:12:27;;;;;;;10.80;6.23;;;3.90;50.10;;;;;;5089273;28;20533;-83
2021/03/21 11:14:53;;;;;;;25.20;14.20;;;3.80;51.30;;;;;;5089324;28;20219;-84
2021/03/21 11:17:25;;;;;;;77.73;37.63;;;4.00;48.60;;;;;;5088870;28;20197;-83
2021/03/21 11:19:56;;;;;;;7.83;5.03;;;4.40;49.40;;;;;;5087302;28;20742;-87
2021/03/21 11:22:35;;;;;;;6.17;4.00;;;4.50;48.70;;;;;;5092586;28;20211;-83
2021/03/21 11:25:05;;;;;;;7.57;3.80;;;4.30;49.50;;;;;;5088966;28;20222;-85
2021/03/21 11:27:34;;;;;;;7.73;3.90;;;4.40;49.50;;;;;;5103824;28;20252;-86
2021/03/21 11:30:11;;;;;;;11.03;5.47;;;4.50;48.70;;;;;;5100412;28;20235;-87
2021/03/21 11:32:38;;;;;;;6.80;4.20;;;4.80;49.70;;;;;;5095489;28;20211;-84
2021/03/21 11:35:12;;;;;;;5.40;3.83;;;5.20;46.70;;;;;;5104591;28;20224;-81
2021/03/21 11:37:40;;;;;;;7.17;4.60;;;5.50;47.00;;;;;;5090854;28;20208;-84
2021/03/21 11:40:14;;;;;;;9.77;4.37;;;5.40;44.60;;;;;;5083871;28;20227;-83
2021/03/21 11:42:42;;;;;;;10.60;5.03;;;5.30;47.10;;;;;;5089212;28;20256;-83
2021/03/21 11:45:21;;;;;;;4.77;3.73;;;5.10;45.80;;;;;;5084353;28;20226;-84
2021/03/21 11:47:49;;;;;;;6.27;3.63;;;5.00;48.40;;;;;;5089131;28;20211;-82
2021/03/21 11:50:19;;;;;;;5.83;3.73;;;4.90;47.20;;;;;;5092918;28;20262;-85
2021/03/21 11:52:46;;;;;;;5.87;3.90;;;4.70;50.10;;;;;;5098673;28;20196;-83
2021/03/21 11:55:18;;;;;;;6.93;4.03;;;4.40;49.30;;;;;;5099783;28;20685;-83
2021/03/21 11:58:03;;;;;;;8.10;3.90;;;4.30;50.00;;;;;;5096273;28;20712;-85
2021/03/21 12:00:32;;;;;;;4.27;3.63;;;4.20;49.10;;;;;;5096357;28;20329;-84
2021/03/21 12:03:02;;;;;;;6.43;3.90;;;4.10;50.70;;;;;;5091474;28;20197;-82
2021/03/21 12:05:31;;;;;;;9.30;3.90;;;3.70;50.90;;;;;;5090293;28;20450;-86
2021/03/21 12:08:23;;;;;;;5.30;3.83;;;3.50;53.20;;;;;;5092771;28;20207;-85
2021/03/21 12:10:53;;;;;;;6.67;3.70;;;3.40;54.00;;;;;;5099551;28;20311;-83
2021/03/21 12:13:27;;;;;;;7.13;4.40;;;3.40;53.50;;;;;;5087046;28;20299;-80
2021/03/21 12:15:55;;;;;;;5.73;3.63;;;3.50;54.80;;;;;;5093019;28;20196;-84
2021/03/21 12:18:49;;;;;;;6.87;4.00;;;3.50;54.20;;;;;;5089527;28;20252;-84
2021/03/21 12:21:27;;;;;;;7.20;3.87;;;3.70;53.60;;;;;;5095261;28;20672;-87
2021/03/21 12:24:04;;;;;;;5.93;4.07;;;3.60;53.30;;;;;;5087946;28;20249;-85
2021/03/21 12:26:58;;;;;;;5.90;4.07;;;3.60;54.10;;;;;;5093450;28;20203;-89
2021/03/21 12:29:38;;;;;;;6.80;4.30;;;3.50;54.30;;;;;;5086179;28;20443;-85
2021/03/21 12:32:35;;;;;;;5.97;3.60;;;3.50;54.80;;;;;;5089894;28;20200;-84
2021/03/21 12:35:02;;;;;;;4.27;3.80;;;3.50;55.30;;;;;;5078948;28;20226;-85
2021/03/21 12:37:30;;;;;;;7.27;4.50;;;3.40;55.80;;;;;;5090527;28;20288;-88
2021/03/21 12:40:11;;;;;;;5.37;3.90;;;3.20;56.00;;;;;;5086623;28;20252;-84
2021/03/21 12:42:43;;;;;;;7.80;4.00;;;3.10;57.50;;;;;;5090960;28;20213;-84
2021/03/21 12:45:25;;;;;;;7.17;4.63;;;3.00;59.30;;;;;;5083358;28;20227;-82
2021/03/21 12:48:02;;;;;;;8.67;3.93;;;3.00;60.30;;;;;;5088099;28;20208;-82
2021/03/21 12:50:48;;;;;;;6.03;4.10;;;3.00;60.30;;;;;;5094313;28;20254;-84
2021/03/21 12:53:25;;;;;;;6.30;4.10;;;3.00;62.10;;;;;;5094942;28;20291;-85
2021/03/21 12:55:53;;;;;;;7.23;4.43;;;3.10;62.00;;;;;;5097585;28;20214;-83
2021/03/21 12:58:21;;;;;;;5.60;4.43;;;3.10;62.60;;;;;;5097909;28;20244;-86
2021/03/21 13:00:49;;;;;;;8.83;4.20;;;3.20;62.00;;;;;;5095511;28;20227;-83
2021/03/21 13:03:40;;;;;;;10.00;4.40;;;3.30;64.70;;;;;;5097553;28;20220;-84
2021/03/21 13:09:48;;;;;;;6.97;4.50;;;3.20;65.00;;;;;;5077411;28;20224;-87
2021/03/21 13:16:14;;;;;;;7.70;5.53;;;3.10;67.80;;;;;;4961092;28;20244;-86
2021/03/21 13:22:08;;;;;;;6.57;4.47;;;3.30;68.10;;;;;;5026985;28;20201;-85
2021/03/21 13:24:35;;;;;;;9.47;5.03;;;3.20;69.60;;;;;;5030787;28;20226;-85
2021/03/21 13:27:06;;;;;;;6.20;4.67;;;3.20;67.90;;;;;;5055065;28;20235;-85
2021/03/21 13:29:54;;;;;;;9.93;5.17;;;3.10;67.80;;;;;;5088794;28;20259;-85
2021/03/21 13:32:26;;;;;;;7.87;4.73;;;2.90;67.50;;;;;;5093975;28;20686;-80
2021/03/21 13:35:03;;;;;;;9.13;5.47;;;2.80;69.00;;;;;;5086788;28;20250;-83
2021/03/21 13:37:49;;;;;;;9.43;5.27;;;2.90;67.60;;;;;;5091821;28;20200;-84
2021/03/21 13:49:56;;;;;;;8.47;5.83;;;2.90;67.50;;;;;;5026953;28;20231;-83
2021/03/21 13:52:24;;;;;;;8.57;5.77;;;3.10;67.20;;;;;;5094409;28;21372;-83
2021/03/21 13:54:54;;;;;;;8.50;5.37;;;3.10;67.80;;;;;;5093219;28;20732;-82
2021/03/21 13:57:20;;;;;;;12.80;5.83;;;3.40;66.50;;;;;;5093928;28;20198;-85
2021/03/21 13:59:47;;;;;;;7.47;5.30;;;3.40;66.70;;;;;;5092059;28;20738;-83
2021/03/21 14:02:13;;;;;;;6.67;5.10;;;3.40;63.90;;;;;;5091285;28;20664;-83
2021/03/21 14:04:40;;;;;;;8.77;5.67;;;3.50;63.90;;;;;;5092379;28;20249;-85